Terminal Aerodrome Forecast
Issued by NWS Cleveland, OH

Home | Current Version | Previous Version | Text Only | Print | Product List | Glossary On
Versions: 1 2 3 4 5 6 7 8 9 10 11 12 13 14 15 16 17 18 19 20 21
000
FTUS41 KCLE 301800 AAA
TAFMFD
TAF AMD
KMFD 301811Z 3018/0118 34008KT P6SM OVC005
      TEMPO 3018/3021 4SM BR OVC010
     FM302100 35008KT 6SM BR BKN015 OVC025
     FM010500 03003KT 2SM BR BKN003
     FM010800 03002KT 1/2SM FG VV002
     FM011500 08003KT P6SM BKN009=

USA.gov is the U.S. government's official web portal to all federal, state and local government web resources and services.